createdAt,value
2022-11-05T00:00:50.293Z,91.00
2022-11-05T00:03:39.297Z,91.00
2022-11-05T00:06:29.947Z,90.90
2022-11-05T00:09:18.702Z,90.80
2022-11-05T00:12:07.185Z,90.60
2022-11-05T00:14:55.810Z,90.40
2022-11-05T00:17:26.751Z,90.40
2022-11-05T00:19:57.639Z,90.20
2022-11-05T00:22:46.345Z,90.10
2022-11-05T00:25:20.558Z,90.10
2022-11-05T00:27:54.104Z,90.10
2022-11-05T00:30:28.827Z,90.00
2022-11-05T00:33:04.546Z,90.00
2022-11-05T00:35:35.377Z,89.70
2022-11-05T00:38:09.999Z,89.70
2022-11-05T00:40:41.166Z,89.50
2022-11-05T00:43:29.567Z,89.00
2022-11-05T00:46:00.665Z,88.80
2022-11-05T00:48:48.961Z,88.20
2022-11-05T00:51:19.878Z,87.60
2022-11-05T00:53:50.788Z,87.10
2022-11-05T00:56:21.615Z,86.00
2022-11-05T00:58:52.880Z,84.80
2022-11-05T01:01:23.849Z,84.10
2022-11-05T01:03:54.761Z,83.60
2022-11-05T01:06:26.326Z,83.20
2022-11-05T01:08:58.399Z,83.30
2022-11-05T01:11:35.382Z,83.00
2022-11-05T01:14:08.875Z,82.30
2022-11-05T01:16:40.708Z,82.00
2022-11-05T01:19:12.842Z,81.80
2022-11-05T01:21:43.689Z,82.00
2022-11-05T01:24:14.568Z,81.70
2022-11-05T01:26:47.401Z,81.10
2022-11-05T01:29:18.181Z,81.30
2022-11-05T01:31:49.516Z,81.50
2022-11-05T01:34:20.419Z,80.60
2022-11-05T01:36:51.470Z,80.50
2022-11-05T01:39:25.272Z,80.90
2022-11-05T01:41:56.211Z,80.50
2022-11-05T01:44:55.333Z,80.20
2022-11-05T01:47:43.521Z,80.00
2022-11-05T01:50:48.473Z,80.90
2022-11-05T01:53:43.037Z,79.80
2022-11-05T01:56:29.371Z,79.40
2022-11-05T01:59:08.685Z,79.50
2022-11-05T02:01:40.145Z,79.20
2022-11-05T02:04:15.371Z,78.70
2022-11-05T02:06:49.087Z,78.90
2022-11-05T02:09:25.610Z,78.50
2022-11-05T02:11:56.567Z,77.80
2022-11-05T02:14:30.760Z,77.50
2022-11-05T02:17:13.155Z,77.10
2022-11-05T02:20:01.565Z,77.20
2022-11-05T02:22:59.057Z,77.20
2022-11-05T02:25:38.033Z,76.90
2022-11-05T02:28:32.582Z,76.10
2022-11-05T02:31:08.881Z,75.50
2022-11-05T02:33:45.272Z,76.00
2022-11-05T02:36:35.671Z,76.10
2022-11-05T02:39:25.233Z,76.00
2022-11-05T02:42:07.678Z,76.00
2022-11-05T02:44:56.436Z,76.10
2022-11-05T02:47:49.565Z,76.10
2022-11-05T02:50:25.976Z,75.60
2022-11-05T02:53:14.585Z,74.60
2022-11-05T02:55:58.061Z,74.60
2022-11-05T02:58:31.615Z,74.30
2022-11-05T03:01:03.900Z,75.60
2022-11-05T03:03:40.126Z,74.20
2022-11-05T03:06:46.363Z,74.00
2022-11-05T03:09:25.418Z,74.20
2022-11-05T03:12:14.079Z,73.40
2022-11-05T03:15:16.386Z,73.20
2022-11-05T03:18:22.506Z,73.70
2022-11-05T03:21:02.724Z,73.60
2022-11-05T03:23:51.810Z,73.20
2022-11-05T03:26:37.291Z,72.80
2022-11-05T03:29:10.725Z,72.80
2022-11-05T03:31:43.453Z,72.70
2022-11-05T03:34:16.656Z,72.70
2022-11-05T03:36:50.023Z,72.20
2022-11-05T03:39:23.390Z,72.00
2022-11-05T03:41:56.313Z,72.50
2022-11-05T03:44:32.421Z,72.60
2022-11-05T03:47:11.336Z,72.20
2022-11-05T03:49:45.031Z,71.80
2022-11-05T03:52:24.866Z,71.20
2022-11-05T03:54:56.108Z,71.10
2022-11-05T03:57:35.252Z,70.70
2022-11-05T04:00:11.509Z,70.50
2022-11-05T04:02:42.689Z,68.80
2022-11-05T04:05:14.173Z,68.90
2022-11-05T04:08:04.389Z,68.70
2022-11-05T04:10:48.666Z,68.60
2022-11-05T04:13:29.049Z,68.40
2022-11-05T04:16:17.159Z,67.50
2022-11-05T04:18:47.995Z,67.40
2022-11-05T04:21:36.496Z,68.10
2022-11-05T04:24:10.984Z,68.30
2022-11-05T04:26:44.755Z,67.90
2022-11-05T04:29:33.520Z,67.90
2022-11-05T04:32:04.352Z,67.30
2022-11-05T04:34:35.403Z,66.40
2022-11-05T04:37:06.217Z,66.00
2022-11-05T04:39:37.111Z,64.00
2022-11-05T04:42:10.068Z,63.80
2022-11-05T04:44:41.217Z,64.10
2022-11-05T04:47:15.711Z,63.40
2022-11-05T04:49:48.062Z,62.80
2022-11-05T04:52:19.140Z,66.10
2022-11-05T04:54:50.096Z,62.90
2022-11-05T04:57:21.029Z,63.20
2022-11-05T04:59:53.193Z,62.90
2022-11-05T05:02:24.663Z,61.70
2022-11-05T05:04:55.665Z,63.00
2022-11-05T05:07:27.185Z,62.40
2022-11-05T05:09:58.468Z,62.50
2022-11-05T05:12:29.433Z,61.60
2022-11-05T05:15:00.385Z,61.90
2022-11-05T05:17:31.317Z,61.60
2022-11-05T05:20:19.659Z,62.30
2022-11-05T05:22:57.761Z,60.40
2022-11-05T05:25:28.788Z,60.20
2022-11-05T05:28:02.410Z,60.00
2022-11-05T05:30:35.047Z,60.20
2022-11-05T05:33:06.031Z,60.60
2022-11-05T05:35:36.949Z,61.20
2022-11-05T05:38:11.555Z,60.10
2022-11-05T05:40:46.654Z,59.70
2022-11-05T05:43:17.637Z,59.00
2022-11-05T05:45:48.499Z,58.90
2022-11-05T05:48:22.584Z,58.40
2022-11-05T05:50:53.563Z,57.90
2022-11-05T05:53:24.573Z,59.00
2022-11-05T05:55:57.026Z,58.90
2022-11-05T05:58:29.812Z,58.60
2022-11-05T06:01:11.003Z,58.10
2022-11-05T06:03:41.795Z,57.60
2022-11-05T06:06:15.256Z,58.60
2022-11-05T06:08:46.085Z,57.00
2022-11-05T06:11:17.136Z,57.40
2022-11-05T06:13:47.928Z,58.10
2022-11-05T06:16:20.310Z,57.70
2022-11-05T06:19:00.745Z,58.40
2022-11-05T06:21:31.840Z,57.00
2022-11-05T06:24:03.851Z,57.40
2022-11-05T06:26:34.769Z,57.40
2022-11-05T06:29:05.687Z,58.00
2022-11-05T06:31:36.519Z,57.10
2022-11-05T06:34:07.428Z,56.60
2022-11-05T06:36:38.360Z,56.90
2022-11-05T06:39:10.558Z,56.60
2022-11-05T06:44:13.669Z,57.10
2022-11-05T06:46:48.358Z,56.50
2022-11-05T06:49:16.915Z,56.10
2022-11-05T06:51:47.724Z,56.80
2022-11-05T06:54:18.664Z,57.40
2022-11-05T06:56:49.499Z,56.80
2022-11-05T06:59:20.404Z,56.60
2022-11-05T07:01:51.476Z,56.30
2022-11-05T07:04:22.280Z,56.80
2022-11-05T07:07:02.248Z,57.10
2022-11-05T07:09:33.123Z,57.30
2022-11-05T07:12:04.249Z,57.20
2022-11-05T07:14:35.171Z,56.80
2022-11-05T07:17:06.019Z,56.90
2022-11-05T07:19:38.277Z,57.40
2022-11-05T07:22:09.086Z,57.50
2022-11-05T07:24:39.964Z,56.80
2022-11-05T07:27:10.870Z,56.40
2022-11-05T07:29:43.666Z,57.10
2022-11-05T07:32:14.704Z,57.30
2022-11-05T07:34:45.524Z,57.40
2022-11-05T07:37:18.035Z,57.60
2022-11-05T07:39:50.087Z,57.60
2022-11-05T07:42:20.919Z,58.10
2022-11-05T07:44:51.717Z,58.60
2022-11-05T07:47:22.519Z,59.20
2022-11-05T07:49:53.339Z,59.30
2022-11-05T07:52:24.289Z,59.70
2022-11-05T07:54:55.126Z,59.40
2022-11-05T07:57:26.867Z,57.80
2022-11-05T08:00:00.292Z,57.60
2022-11-05T08:02:32.485Z,57.30
2022-11-05T08:05:03.492Z,57.30
2022-11-05T08:07:35.453Z,58.20
2022-11-05T08:10:09.399Z,58.10
2022-11-05T08:12:40.311Z,58.90
2022-11-05T08:15:12.161Z,58.30
2022-11-05T08:17:43.277Z,57.40
2022-11-05T08:20:15.218Z,56.40
2022-11-05T08:22:49.809Z,57.20
2022-11-05T08:25:20.806Z,57.50
2022-11-05T08:27:53.130Z,57.50
2022-11-05T08:30:24.106Z,57.50
2022-11-05T08:32:56.722Z,57.50
2022-11-05T08:35:27.860Z,57.30
2022-11-05T08:38:04.008Z,57.10
2022-11-05T08:40:36.924Z,56.90
2022-11-05T08:43:09.755Z,57.30
2022-11-05T08:45:41.551Z,57.40
2022-11-05T08:48:17.497Z,57.10
2022-11-05T08:50:49.697Z,57.50
2022-11-05T08:53:20.816Z,56.70
2022-11-05T08:59:10.442Z,56.40
2022-11-05T09:01:41.443Z,56.80
2022-11-05T09:04:12.614Z,56.70
2022-11-05T09:06:43.586Z,57.60
2022-11-05T09:09:14.413Z,56.90
2022-11-05T09:12:10.408Z,56.90
2022-11-05T09:14:18.401Z,57.10
2022-11-05T09:17:01.736Z,56.70
2022-11-05T09:19:36.609Z,58.80
2022-11-05T09:22:05.093Z,59.50
2022-11-05T09:24:35.887Z,59.50
2022-11-05T09:27:06.802Z,59.50
2022-11-05T09:29:37.781Z,59.70
2022-11-05T09:32:08.923Z,59.70
2022-11-05T09:34:40.850Z,59.70
2022-11-05T09:37:11.655Z,59.80
2022-11-05T09:39:42.601Z,60.00
2022-11-05T09:42:16.208Z,60.50
2022-11-05T09:44:52.109Z,60.50
2022-11-05T09:47:28.101Z,60.80
2022-11-05T09:50:01.290Z,61.10
2022-11-05T09:52:34.231Z,61.20
2022-11-05T09:55:08.250Z,61.40
2022-11-05T09:57:47.892Z,61.60
2022-11-05T10:00:21.144Z,61.70
2022-11-05T10:02:54.287Z,61.80
2022-11-05T10:05:27.212Z,61.70
2022-11-05T10:08:01.161Z,61.90
2022-11-05T10:10:41.327Z,62.30
2022-11-05T10:13:30.293Z,62.00
2022-11-05T10:16:06.771Z,62.10
2022-11-05T10:18:46.094Z,62.00
2022-11-05T10:21:37.590Z,62.00
2022-11-05T10:23:54.020Z,62.40
2022-11-05T10:26:28.328Z,62.50
2022-11-05T10:28:59.577Z,62.60
2022-11-05T10:31:35.385Z,62.90
2022-11-05T10:34:08.111Z,63.00
2022-11-05T10:36:40.365Z,63.00
2022-11-05T10:39:16.436Z,63.30
2022-11-05T10:42:06.123Z,63.30
2022-11-05T10:44:57.465Z,63.50
2022-11-05T10:47:57.854Z,63.50
2022-11-05T10:50:30.643Z,63.50
2022-11-05T10:53:04.153Z,63.10
2022-11-05T10:55:52.306Z,63.40
2022-11-05T10:58:26.616Z,63.60
2022-11-05T11:01:00.063Z,63.90
2022-11-05T11:03:52.348Z,65.00
2022-11-05T11:06:30.915Z,64.30
2022-11-05T11:09:07.053Z,64.30
2022-11-05T11:11:45.504Z,64.40
2022-11-05T11:14:19.148Z,64.50
2022-11-05T11:16:59.289Z,64.70
2022-11-05T11:19:40.990Z,64.90
2022-11-05T11:22:16.930Z,65.20
2022-11-05T11:24:50.568Z,65.20
2022-11-05T11:27:30.728Z,64.60
2022-11-05T11:30:03.806Z,65.50
2022-11-05T11:32:37.127Z,65.70
2022-11-05T11:35:10.278Z,65.80
2022-11-05T11:37:43.202Z,66.00
2022-11-05T11:40:16.840Z,66.10
2022-11-05T11:42:53.259Z,66.10
2022-11-05T11:45:47.961Z,66.10
2022-11-05T11:48:30.216Z,66.20
2022-11-05T11:51:03.189Z,66.30
2022-11-05T11:53:38.237Z,67.40
2022-11-05T11:56:23.299Z,66.50
2022-11-05T11:58:58.885Z,66.80
2022-11-05T12:01:53.587Z,66.80
2022-11-05T12:04:56.974Z,67.00
2022-11-05T12:07:33.140Z,67.10
2022-11-05T12:10:31.860Z,67.30
2022-11-05T12:13:23.055Z,67.50
2022-11-05T12:15:56.897Z,67.40
2022-11-05T12:18:38.450Z,67.70
2022-11-05T12:21:11.945Z,67.80
2022-11-05T12:24:04.991Z,68.00
2022-11-05T12:26:56.683Z,68.30
2022-11-05T12:29:42.400Z,68.40
2022-11-05T12:32:33.927Z,68.50
2022-11-05T12:35:16.564Z,68.90
2022-11-05T12:38:12.250Z,69.00
2022-11-05T12:40:48.590Z,69.20
2022-11-05T12:43:24.506Z,69.40
2022-11-05T12:46:29.461Z,69.60
2022-11-05T12:49:23.836Z,69.50
2022-11-05T12:52:06.999Z,69.70
2022-11-05T12:55:18.138Z,69.90
2022-11-05T12:57:52.130Z,70.10
2022-11-05T13:00:25.280Z,71.20
2022-11-05T13:02:58.613Z,70.40
2022-11-05T13:05:44.077Z,70.50
2022-11-05T13:08:32.531Z,70.80
2022-11-05T13:11:05.903Z,70.90
2022-11-05T13:13:45.143Z,71.00
2022-11-05T13:16:33.774Z,71.10
2022-11-05T13:19:16.234Z,71.20
2022-11-05T13:21:49.578Z,71.40
2022-11-05T13:24:23.014Z,71.50
2022-11-05T13:27:05.534Z,71.50
2022-11-05T13:29:48.025Z,72.40
2022-11-05T13:32:39.664Z,71.60
2022-11-05T13:35:15.369Z,71.60
2022-11-05T13:38:05.819Z,71.70
2022-11-05T13:40:48.139Z,72.00
2022-11-05T13:43:40.757Z,71.80
2022-11-05T13:46:20.597Z,72.10
2022-11-05T13:48:59.548Z,72.10
2022-11-05T13:51:44.614Z,72.30
2022-11-05T13:54:34.332Z,72.90
2022-11-05T13:57:37.718Z,73.30
2022-11-05T14:00:30.433Z,73.30
2022-11-05T14:03:03.979Z,73.40
2022-11-05T14:05:42.952Z,72.50
2022-11-05T14:08:32.277Z,71.80
2022-11-05T14:14:40.879Z,72.50
2022-11-05T14:17:15.177Z,72.60
2022-11-05T14:20:15.048Z,71.90
2022-11-05T14:22:47.258Z,71.60
2022-11-05T14:25:30.499Z,71.40
2022-11-05T14:28:01.449Z,71.30
2022-11-05T14:30:46.994Z,71.80
2022-11-05T14:33:33.053Z,72.30
2022-11-05T14:36:25.102Z,72.50
2022-11-05T14:39:04.495Z,72.90
2022-11-05T14:41:44.135Z,73.70
2022-11-05T14:44:15.306Z,73.90
2022-11-05T14:46:49.500Z,73.50
2022-11-05T14:49:31.660Z,74.00
2022-11-05T14:52:24.711Z,74.10
2022-11-05T14:55:00.012Z,74.00
2022-11-05T14:57:52.456Z,74.30
2022-11-05T15:00:37.099Z,74.30
2022-11-05T15:03:30.222Z,73.90
2022-11-05T15:06:15.139Z,73.60
2022-11-05T15:08:57.786Z,74.70
2022-11-05T15:11:39.723Z,74.00
2022-11-05T15:14:38.665Z,74.30
2022-11-05T15:17:31.234Z,74.80
2022-11-05T15:20:11.038Z,75.20
2022-11-05T15:22:55.288Z,75.10
2022-11-05T15:25:34.766Z,75.00
2022-11-05T15:28:16.890Z,75.10
2022-11-05T15:31:02.437Z,74.90
2022-11-05T15:33:34.397Z,75.00
2022-11-05T15:36:24.142Z,75.10
2022-11-05T15:39:22.853Z,75.10
2022-11-05T15:41:31.709Z,75.00
2022-11-05T15:44:04.081Z,75.10
2022-11-05T15:46:36.902Z,75.20
2022-11-05T15:49:16.518Z,75.10
2022-11-05T15:51:49.244Z,75.00
2022-11-05T15:54:30.388Z,75.00
2022-11-05T15:56:57.711Z,75.10
2022-11-05T15:59:31.311Z,75.20
2022-11-05T16:02:04.782Z,75.50
2022-11-05T16:04:37.334Z,75.60
2022-11-05T16:07:20.295Z,75.70
2022-11-05T16:09:57.160Z,75.70
2022-11-05T16:12:41.775Z,76.00
2022-11-05T16:15:18.060Z,76.10
2022-11-05T16:17:58.243Z,76.40
2022-11-05T16:20:39.842Z,76.80
2022-11-05T16:23:28.417Z,77.10
2022-11-05T16:26:06.720Z,77.50
2022-11-05T16:28:37.894Z,77.80
2022-11-05T16:31:18.650Z,78.10
2022-11-05T16:33:50.985Z,78.30
2022-11-05T16:36:25.713Z,78.60
2022-11-05T16:38:56.690Z,78.90
2022-11-05T16:41:29.475Z,79.10
2022-11-05T16:44:06.215Z,79.60
2022-11-05T16:46:36.187Z,79.90
2022-11-05T16:49:07.123Z,79.70
2022-11-05T16:51:38.112Z,80.30
2022-11-05T16:54:10.331Z,80.80
2022-11-05T16:56:43.550Z,81.30
2022-11-05T16:59:15.922Z,81.40
2022-11-05T17:01:50.356Z,82.50
2022-11-05T17:04:25.759Z,82.10
2022-11-05T17:06:58.796Z,82.30
2022-11-05T17:09:31.488Z,82.60
2022-11-05T17:12:05.468Z,82.60
2022-11-05T17:14:37.690Z,83.20
2022-11-05T17:17:09.718Z,83.40
2022-11-05T17:19:44.495Z,83.40
2022-11-05T17:22:15.307Z,83.50
2022-11-05T17:24:46.270Z,83.90
2022-11-05T17:27:17.412Z,84.00
2022-11-05T17:29:48.241Z,84.10
2022-11-05T17:32:19.249Z,84.30
2022-11-05T17:34:50.061Z,84.20
2022-11-05T17:37:21.066Z,84.40
2022-11-05T17:39:51.977Z,84.80
2022-11-05T17:42:22.800Z,84.70
2022-11-05T17:44:53.682Z,85.10
2022-11-05T17:47:27.958Z,85.10
2022-11-05T17:49:58.945Z,85.40
2022-11-05T17:52:30.990Z,85.70
2022-11-05T17:55:01.967Z,85.60
2022-11-05T17:57:32.789Z,86.10
2022-11-05T18:00:05.903Z,86.00
2022-11-05T18:02:47.339Z,86.10
2022-11-05T18:05:18.034Z,86.40
2022-11-05T18:07:50.791Z,86.70
2022-11-05T18:10:25.625Z,87.50
2022-11-05T18:12:59.385Z,86.60
2022-11-05T18:15:30.316Z,86.80
2022-11-05T18:18:01.206Z,86.90
2022-11-05T18:20:32.269Z,86.90
2022-11-05T18:23:03.225Z,87.10
2022-11-05T18:25:34.256Z,87.00
2022-11-05T18:28:05.742Z,86.90
2022-11-05T18:30:39.974Z,87.00
2022-11-05T18:33:14.086Z,86.90
2022-11-05T18:35:48.468Z,87.00
2022-11-05T18:38:19.402Z,87.00
2022-11-05T18:40:50.233Z,88.10
2022-11-05T18:43:21.056Z,87.20
2022-11-05T18:45:54.438Z,87.20
2022-11-05T18:48:26.571Z,87.40
2022-11-05T18:51:01.708Z,87.50
2022-11-05T18:53:30.355Z,87.50
2022-11-05T18:56:01.271Z,87.60
2022-11-05T18:58:35.286Z,87.60
2022-11-05T19:01:08.186Z,87.70
2022-11-05T19:03:39.035Z,87.90
2022-11-05T19:06:13.026Z,87.90
2022-11-05T19:08:44.161Z,88.20
2022-11-05T19:11:17.676Z,88.30
2022-11-05T19:13:48.623Z,88.60
2022-11-05T19:16:22.005Z,88.80
2022-11-05T19:18:54.275Z,88.80
2022-11-05T19:21:27.235Z,89.00
2022-11-05T19:24:05.657Z,89.30
2022-11-05T19:26:41.987Z,88.90
2022-11-05T19:29:16.353Z,89.00
2022-11-05T19:31:50.459Z,88.80
2022-11-05T19:34:21.733Z,88.90
2022-11-05T19:36:52.525Z,89.00
2022-11-05T19:39:23.629Z,89.00
2022-11-05T19:42:00.336Z,89.20
2022-11-05T19:44:28.632Z,89.30
2022-11-05T19:46:59.673Z,89.20
2022-11-05T19:49:31.505Z,89.10
2022-11-05T19:52:02.723Z,89.30
2022-11-05T19:54:33.529Z,89.60
2022-11-05T19:57:07.019Z,89.40
2022-11-05T19:59:37.973Z,89.50
2022-11-05T20:02:13.330Z,89.80
2022-11-05T20:04:43.913Z,89.70
2022-11-05T20:07:15.894Z,90.00
2022-11-05T20:09:46.690Z,90.00
2022-11-05T20:12:17.825Z,90.00
2022-11-05T20:14:48.624Z,90.00
2022-11-05T20:17:19.850Z,90.00
2022-11-05T20:19:50.791Z,90.00
2022-11-05T20:22:21.658Z,90.00
2022-11-05T20:24:52.564Z,89.90
2022-11-05T20:27:24.123Z,90.00
2022-11-05T20:29:55.011Z,90.00
2022-11-05T20:32:25.836Z,90.10
2022-11-05T20:34:56.838Z,90.20
2022-11-05T20:37:27.842Z,90.20
2022-11-05T20:39:58.695Z,90.20
2022-11-05T20:42:29.596Z,90.30
2022-11-05T20:45:01.870Z,90.30
2022-11-05T20:47:32.661Z,90.40
2022-11-05T20:50:04.873Z,90.50
2022-11-05T20:52:36.797Z,90.50
2022-11-05T20:55:09.521Z,90.50
2022-11-05T20:57:40.608Z,90.50
2022-11-05T21:00:12.203Z,90.60
2022-11-05T21:02:46.545Z,90.60
2022-11-05T21:05:17.702Z,90.60
2022-11-05T21:07:48.720Z,90.60
2022-11-05T21:10:19.832Z,90.70
2022-11-05T21:12:50.736Z,90.70
2022-11-05T21:15:23.034Z,90.70
2022-11-05T21:17:54.325Z,90.70
2022-11-05T21:20:25.235Z,90.70
2022-11-05T21:22:56.597Z,90.80
2022-11-05T21:25:28.208Z,90.80
2022-11-05T21:28:01.495Z,90.80
2022-11-05T21:30:32.844Z,90.80
2022-11-05T21:33:04.440Z,90.80
2022-11-05T21:35:35.675Z,90.90
2022-11-05T21:38:07.553Z,90.90
2022-11-05T21:40:38.980Z,90.80
2022-11-05T21:43:10.170Z,90.90
2022-11-05T21:45:46.351Z,90.80
2022-11-05T21:48:17.163Z,90.80
2022-11-05T21:51:06.463Z,90.70
2022-11-05T21:53:54.723Z,90.70
2022-11-05T21:59:40.133Z,90.70
2022-11-05T22:02:13.688Z,90.70
2022-11-05T22:04:46.690Z,90.70
2022-11-05T22:07:20.307Z,90.70
2022-11-05T22:09:51.544Z,90.70
2022-11-05T22:12:22.697Z,90.80
2022-11-05T22:14:54.195Z,90.80
2022-11-05T22:17:25.805Z,90.80
2022-11-05T22:19:56.883Z,90.80
2022-11-05T22:22:27.694Z,91.00
2022-11-05T22:24:58.835Z,91.00
2022-11-05T22:27:30.737Z,91.00
2022-11-05T22:30:01.740Z,90.90
2022-11-05T22:32:35.236Z,91.00
2022-11-05T22:35:07.591Z,91.00
2022-11-05T22:37:38.547Z,91.20
2022-11-05T22:40:10.800Z,91.20
2022-11-05T22:42:41.780Z,91.70
2022-11-05T22:45:13.605Z,91.20
2022-11-05T22:47:47.430Z,91.20
2022-11-05T22:50:18.404Z,91.10
2022-11-05T22:52:49.645Z,91.10
2022-11-05T22:55:20.856Z,91.30
2022-11-05T22:57:51.756Z,91.20
2022-11-05T23:00:23.877Z,91.20
2022-11-05T23:02:55.403Z,91.20
2022-11-05T23:05:26.956Z,91.50
2022-11-05T23:08:15.749Z,91.50
2022-11-05T23:11:04.053Z,91.50
2022-11-05T23:13:35.176Z,91.60
2022-11-05T23:16:23.917Z,91.90
2022-11-05T23:19:12.724Z,91.60
2022-11-05T23:22:01.246Z,91.70
2022-11-05T23:24:32.051Z,91.80
2022-11-05T23:27:02.865Z,91.90
2022-11-05T23:29:33.666Z,92.00
2022-11-05T23:32:22.194Z,92.10
2022-11-05T23:34:54.149Z,92.10
2022-11-05T23:37:44.200Z,92.10
2022-11-05T23:40:24.058Z,92.10
2022-11-05T23:43:13.314Z,92.10
2022-11-05T23:46:02.203Z,92.50
2022-11-05T23:48:35.737Z,92.20
2022-11-05T23:51:09.180Z,92.10
2022-11-05T23:53:42.374Z,92.60
2022-11-05T23:56:17.997Z,92.70
2022-11-05T23:58:49.033Z,94.30
